Startpagina
METAR-TAF:

METAR-TAF

Vliegvelden :

Mar del Plata, Argentinië

Aeropuerto Internacional Astor Piazolla

breedte: 37-56S, lengte: 057-35W, hoogte: 18 m

Actueel weer

Dit bericht is 54 minuten geleden gemaakt, om 01:00 UTC
Wind 10 kt uit het zuiden
Temperatuur 10°C
Vochtigheid 76%
Druk 1025 hPa
Zicht: 6000 m

METAR: SAZM 260100Z 18010KT 6000 NSC 10/06 Q1025

Tijdstip: 22:54 (01:54 UTC)

Verwachting

Dit bericht is 2 uur en het 54 minuten geleden gemaakt, om 23:00 UTC
Verwachting geldig van 26 om 00 UTC tot 26 om 24 UTC
Wind 15 kt uit het zuiden
Zicht 10 km of meer
Verspreide wolken op 3000 ft
Wijzigt naar
van 26 om 04 UTC tot 26 om 07 UTC
Zicht: 8000 m
Gebroken wolken op 2000 ft
Gebroken wolken op 5000 ft
Wijzigt naar
van 26 om 12 UTC tot 26 om 15 UTC
Wind 15 kt uit het zuidzuidoosten
Zicht: 6000 m
Gebroken wolken op 1500 ft
Geheel bewolkt op 2500 ft
regen

TAF: SAZM 252300Z 2600/2624 18015KT 9999 SCT030 TX12/2618Z TN09/2610Z BECMG 2604/2607 8000 BKN020 BKN050 BECMG 2612/2615 16015KT 6000 RA BKN015 OVC025

Waarnemingen en weersverwachtingen van meer dan 4000 vliegvelden (METAR en TAF).

De beschikbare stations zijn de gele en rode punten op de kaart.

Ga met uw muis naar het station om de naam te zien.

Klik dan om waarnemingen en weersverwachtingen te zien.

kaart wijzigen: klik op de groene knoppen met een zwart kruis om in te zoomen, op de groene knop met een streepje om uit te zoomen of op de groene pijlen voor aangrenzende kaarten.


METAR-TAF: